Eko 4 — SVAR8 — position and weather

sailwx.info

Track history (hours):
 
Tides and Currents Weather Stations Pressure Air Temp Water Temp Dewpoint Dewpoint Depression Visibility Wind Speed Wind Dir Waves Ship Positions

Eko 4

Last reported at 2017-Jan-17 18:33 UTC. Time now 2017-Jan-17 19:15 UTC.
Position N 38°01' E 023°31'.

Length 88 m; draft 5 m.

Type: Ship (hazmat cat A). MMSI: 240912000.

Date/timePositionNaut miles runAvg speedWind from/ knotsBaromVisibWave heightAir tempDewpointWater temp
2017-Jan-17 18:33N 38°01' E 023°31'1 1.4
2017-Jan-17 17:32N 38°01' E 023°33'0 0.1
2017-Jan-17 16:29N 38°01' E 023°33'0 0.0
2017-Jan-17 15:32N 38°01' E 023°33'0 0.0
2017-Jan-17 14:14N 38°01' E 023°33'0 0.0
2017-Jan-17 13:23N 38°01' E 023°33'0 0.0
2017-Jan-17 12:32N 38°01' E 023°33'0 0.0
2017-Jan-17 11:32N 38°01' E 023°33'0 0.0
2017-Jan-17 10:32N 38°01' E 023°33'0 0.0
2017-Jan-17 09:32N 38°01' E 023°33'0 0.1
2017-Jan-17 08:32N 38°01' E 023°33'0 0.0
2017-Jan-17 07:32N 38°01' E 023°33'0 0.0
2017-Jan-17 06:32N 38°01' E 023°33'0 0.0
2017-Jan-17 05:32N 38°01' E 023°33'0 0.0
2017-Jan-17 04:32N 38°01' E 023°33'0 0.0
2017-Jan-17 03:32N 38°01' E 023°33'0 0.0
2017-Jan-17 02:32N 38°01' E 023°33'0 0.0
2017-Jan-17 01:32N 38°01' E 023°33'0 0.0
2017-Jan-17 00:32N 38°01' E 023°33'0 0.0
2017-Jan-16 23:32N 38°01' E 023°33'0 0.0
2017-Jan-16 22:32N 38°01' E 023°33'0 0.0
2017-Jan-16 21:29N 38°01' E 023°33'0 0.0
2017-Jan-16 20:32N 38°01' E 023°33'0 0.0
2017-Jan-16 19:11N 38°01' E 023°33'0 0.1
2017-Jan-16 18:17N 38°01' E 023°33'0 0.0
2017-Jan-16 17:32N 38°01' E 023°33'0 0.1
2017-Jan-16 16:32N 38°01' E 023°33'0 0.0
2017-Jan-16 15:29N 38°01' E 023°33'0 0.0
2017-Jan-16 14:32N 38°01' E 023°33'0 0.0
2017-Jan-16 13:32N 38°01' E 023°33'0 0.0
2017-Jan-16 12:32N 38°01' E 023°33'6 4.8
2017-Jan-16 11:16N 37°56' E 023°36'0 0.3
2017-Jan-16 10:33N 37°55' E 023°36'0 0.2
2017-Jan-16 09:32N 37°55' E 023°36'0 0.2
2017-Jan-16 08:33N 37°55' E 023°36'1 0.7
2017-Jan-16 07:33N 37°55' E 023°36'8 7.6
2017-Jan-16 06:33N 37°48' E 023°41'  
2017-Jan-12 21:33N 37°40' E 023°43'9 9.3
2017-Jan-12 20:33N 37°48' E 023°38'8 7.9
2017-Jan-12 19:33N 37°56' E 023°36'6 6.1
2017-Jan-12 18:33N 38°01' E 023°32'0 0.1
2017-Jan-12 17:33N 38°01' E 023°32'0 0.0
2017-Jan-12 16:33N 38°01' E 023°32'0 0.0
2017-Jan-12 10:21N 38°01' E 023°32'0 0.1
2017-Jan-12 08:33N 38°01' E 023°32'1 1.5
2017-Jan-12 07:33N 38°02' E 023°34'2 0.1
2017-Jan-11 12:24N 38°02' E 023°36'2 2.4
2017-Jan-11 11:33N 38°01' E 023°33'2 0.9
2017-Jan-11 09:33N 38°02' E 023°31'0 0.1
2017-Jan-11 08:33N 38°02' E 023°31'6 5.8
2017-Jan-11 07:33N 37°57' E 023°35'1 1.0
2017-Jan-11 06:32N 37°56' E 023°35'1 0.8
2017-Jan-11 05:33N 37°55' E 023°35'8 7.5
2017-Jan-11 04:33N 37°48' E 023°40'  
Track history (hours):
 
Tides and Currents Weather Stations Pressure Air Temp Water Temp Dewpoint Dewpoint Depression Visibility Wind Speed Wind Dir Waves Ship Positions

Eko 4

Last reported at 2017-Jan-17 18:33 UTC. Time now 2017-Jan-17 19:15 UTC.
Position N 38°01' E 023°31'.

Length 88 m; draft 5 m.

Type: Ship (hazmat cat A). MMSI: 240912000.

Date/timePositionNaut miles runAvg speedWind from/ knotsBaromVisibWave heightAir tempDewpointWater temp
2017-Jan-17 18:33N 38°01' E 023°31'1 1.4
2017-Jan-17 17:32N 38°01' E 023°33'0 0.1
2017-Jan-17 16:29N 38°01' E 023°33'0 0.0
2017-Jan-17 15:32N 38°01' E 023°33'0 0.0
2017-Jan-17 14:14N 38°01' E 023°33'0 0.0
2017-Jan-17 13:23N 38°01' E 023°33'0 0.0
2017-Jan-17 12:32N 38°01' E 023°33'0 0.0
2017-Jan-17 11:32N 38°01' E 023°33'0 0.0
2017-Jan-17 10:32N 38°01' E 023°33'0 0.0
2017-Jan-17 09:32N 38°01' E 023°33'0 0.1
2017-Jan-17 08:32N 38°01' E 023°33'0 0.0
2017-Jan-17 07:32N 38°01' E 023°33'0 0.0
2017-Jan-17 06:32N 38°01' E 023°33'0 0.0
2017-Jan-17 05:32N 38°01' E 023°33'0 0.0
2017-Jan-17 04:32N 38°01' E 023°33'0 0.0
2017-Jan-17 03:32N 38°01' E 023°33'0 0.0
2017-Jan-17 02:32N 38°01' E 023°33'0 0.0
2017-Jan-17 01:32N 38°01' E 023°33'0 0.0
2017-Jan-17 00:32N 38°01' E 023°33'0 0.0
2017-Jan-16 23:32N 38°01' E 023°33'0 0.0
2017-Jan-16 22:32N 38°01' E 023°33'0 0.0
2017-Jan-16 21:29N 38°01' E 023°33'0 0.0
2017-Jan-16 20:32N 38°01' E 023°33'0 0.0
2017-Jan-16 19:11N 38°01' E 023°33'0 0.1
2017-Jan-16 18:17N 38°01' E 023°33'0 0.0
2017-Jan-16 17:32N 38°01' E 023°33'0 0.1
2017-Jan-16 16:32N 38°01' E 023°33'0 0.0
2017-Jan-16 15:29N 38°01' E 023°33'0 0.0
2017-Jan-16 14:32N 38°01' E 023°33'0 0.0
2017-Jan-16 13:32N 38°01' E 023°33'0 0.0
2017-Jan-16 12:32N 38°01' E 023°33'6 4.8
2017-Jan-16 11:16N 37°56' E 023°36'0 0.3
2017-Jan-16 10:33N 37°55' E 023°36'0 0.2
2017-Jan-16 09:32N 37°55' E 023°36'0 0.2
2017-Jan-16 08:33N 37°55' E 023°36'1 0.7
2017-Jan-16 07:33N 37°55' E 023°36'8 7.6
2017-Jan-16 06:33N 37°48' E 023°41'  
2017-Jan-12 21:33N 37°40' E 023°43'9 9.3
2017-Jan-12 20:33N 37°48' E 023°38'8 7.9
2017-Jan-12 19:33N 37°56' E 023°36'6 6.1
2017-Jan-12 18:33N 38°01' E 023°32'0 0.1
2017-Jan-12 17:33N 38°01' E 023°32'0 0.0
2017-Jan-12 16:33N 38°01' E 023°32'0 0.0
2017-Jan-12 10:21N 38°01' E 023°32'0 0.1
2017-Jan-12 08:33N 38°01' E 023°32'1 1.5
2017-Jan-12 07:33N 38°02' E 023°34'2 0.1
2017-Jan-11 12:24N 38°02' E 023°36'2 2.4
2017-Jan-11 11:33N 38°01' E 023°33'2 0.9
2017-Jan-11 09:33N 38°02' E 023°31'0 0.1
2017-Jan-11 08:33N 38°02' E 023°31'6 5.8
2017-Jan-11 07:33N 37°57' E 023°35'1 1.0
2017-Jan-11 06:32N 37°56' E 023°35'1 0.8
2017-Jan-11 05:33N 37°55' E 023°35'8 7.5
2017-Jan-11 04:33N 37°48' E 023°40'  

Dump ship's entire track history